createdAt,value
2016-12-21T00:00:20.867Z,1012.15
2016-12-21T00:01:01.447Z,1012.15
2016-12-21T00:01:42.057Z,1012.14
2016-12-21T00:02:22.648Z,1012.14
2016-12-21T00:03:03.278Z,1012.17
2016-12-21T00:03:43.869Z,1012.19
2016-12-21T00:04:24.455Z,1012.21
2016-12-21T00:05:05.068Z,1012.2
2016-12-21T00:05:45.645Z,1012.2
2016-12-21T00:06:26.234Z,1012.21
2016-12-21T00:07:06.857Z,1012.19
2016-12-21T00:07:47.474Z,1012.17
2016-12-21T00:08:28.086Z,1012.16
2016-12-21T00:09:08.707Z,1012.17
2016-12-21T00:09:49.297Z,1012.2
2016-12-21T00:10:29.875Z,1012.13
2016-12-21T00:11:10.460Z,1012.16
2016-12-21T00:11:51.051Z,1012.14
2016-12-21T00:12:31.632Z,1012.14
2016-12-21T00:13:12.220Z,1012.12
2016-12-21T00:13:52.806Z,1012.15
2016-12-21T00:14:33.417Z,1012.19
2016-12-21T00:15:14.047Z,1012.15
2016-12-21T00:15:54.632Z,1012.17
2016-12-21T00:16:35.233Z,1012.19
2016-12-21T00:17:15.820Z,1012.21
2016-12-21T00:17:56.408Z,1012.21
2016-12-21T00:18:37.003Z,1012.19
2016-12-21T00:19:17.584Z,1012.24
2016-12-21T00:19:58.196Z,1012.19
2016-12-21T00:20:38.779Z,1012.23
2016-12-21T00:21:19.387Z,1012.2
2016-12-21T00:21:59.983Z,1012.2
2016-12-21T00:22:40.558Z,1012.23
2016-12-21T00:23:21.155Z,1012.25
2016-12-21T00:24:01.745Z,1012.26
2016-12-21T00:24:42.330Z,1012.28
2016-12-21T00:25:22.973Z,1012.3
2016-12-21T00:26:03.557Z,1012.29
2016-12-21T00:26:44.142Z,1012.32
2016-12-21T00:27:24.724Z,1012.31
2016-12-21T00:28:05.308Z,1012.3
2016-12-21T00:28:45.921Z,1012.33
2016-12-21T00:29:26.562Z,1012.32
2016-12-21T00:30:07.191Z,1012.3
2016-12-21T00:30:47.772Z,1012.27
2016-12-21T00:31:28.348Z,1012.27
2016-12-21T00:32:08.977Z,1012.3
2016-12-21T00:32:49.588Z,1012.29
2016-12-21T00:33:30.179Z,1012.25
2016-12-21T00:34:10.798Z,1012.26
2016-12-21T00:34:51.393Z,1012.26
2016-12-21T00:35:31.985Z,1012.25
2016-12-21T00:36:12.595Z,1012.22
2016-12-21T00:36:53.185Z,1012.24
2016-12-21T00:37:33.743Z,1012.19
2016-12-21T00:38:14.324Z,1012.26
2016-12-21T00:38:54.906Z,1012.2
2016-12-21T00:39:35.543Z,1012.19
2016-12-21T00:40:16.154Z,1012.19
2016-12-21T00:40:56.774Z,1012.26
2016-12-21T00:41:37.425Z,1012.23
2016-12-21T00:42:18.006Z,1012.25
2016-12-21T00:42:58.627Z,1012.24
2016-12-21T00:43:39.212Z,1012.26
2016-12-21T00:44:19.800Z,1012.25
2016-12-21T00:45:00.407Z,1012.25
2016-12-21T00:45:41.021Z,1012.26
2016-12-21T00:46:21.614Z,1012.25
2016-12-21T00:47:02.216Z,1012.25
2016-12-21T00:47:42.817Z,1012.3
2016-12-21T00:48:23.430Z,1012.29
2016-12-21T00:49:04.023Z,1012.27
2016-12-21T00:49:44.623Z,1012.28
2016-12-21T00:50:25.241Z,1012.26
2016-12-21T00:51:05.834Z,1012.29
2016-12-21T00:51:46.463Z,1012.29
2016-12-21T00:52:27.105Z,1012.34
2016-12-21T00:53:07.741Z,1012.29
2016-12-21T00:53:48.370Z,1012.31
2016-12-21T00:54:28.984Z,1012.28
2016-12-21T00:55:09.604Z,1012.26
2016-12-21T00:55:50.208Z,1012.25
2016-12-21T00:56:30.801Z,1012.27
2016-12-21T00:57:11.406Z,1012.3
2016-12-21T00:57:52.007Z,1012.28
2016-12-21T00:58:32.599Z,1012.24
2016-12-21T00:59:13.216Z,1012.2
2016-12-21T00:59:53.815Z,1012.27
2016-12-21T01:00:34.416Z,1012.27
2016-12-21T01:01:15.017Z,1012.3
2016-12-21T01:01:55.616Z,1012.28
2016-12-21T01:02:36.210Z,1012.3
2016-12-21T01:03:16.817Z,1012.31
2016-12-21T01:03:57.420Z,1012.28
2016-12-21T01:04:38.034Z,1012.31
2016-12-21T01:05:18.620Z,1012.28
2016-12-21T01:05:59.234Z,1012.29
2016-12-21T01:06:39.839Z,1012.31
2016-12-21T01:07:20.472Z,1012.31
2016-12-21T01:08:01.088Z,1012.26
2016-12-21T01:08:41.711Z,1012.28
2016-12-21T01:09:22.348Z,1012.28
2016-12-21T01:10:02.944Z,1012.25
2016-12-21T01:10:43.533Z,1012.25
2016-12-21T01:11:24.133Z,1012.25
2016-12-21T01:12:04.741Z,1012.24
2016-12-21T01:12:45.362Z,1012.28
2016-12-21T01:13:25.942Z,1012.3
2016-12-21T01:14:06.535Z,1012.28
2016-12-21T01:14:47.188Z,1012.26
2016-12-21T01:15:27.827Z,1012.26
2016-12-21T01:16:08.421Z,1012.31
2016-12-21T01:16:49.035Z,1012.29
2016-12-21T01:17:29.678Z,1012.35
2016-12-21T01:18:10.268Z,1012.36
2016-12-21T01:18:50.874Z,1012.36
2016-12-21T01:19:31.461Z,1012.36
2016-12-21T01:20:12.043Z,1012.36
2016-12-21T01:20:52.624Z,1012.37
2016-12-21T01:21:33.218Z,1012.38
2016-12-21T01:22:13.814Z,1012.36
2016-12-21T01:22:54.430Z,1012.37
2016-12-21T01:23:34.994Z,1012.42
2016-12-21T01:24:15.593Z,1012.39
2016-12-21T01:24:56.191Z,1012.42
2016-12-21T01:25:36.789Z,1012.41
2016-12-21T01:26:17.400Z,1012.43
2016-12-21T01:26:57.994Z,1012.41
2016-12-21T01:27:38.591Z,1012.37
2016-12-21T01:28:19.243Z,1012.34
2016-12-21T01:28:59.861Z,1012.37
2016-12-21T01:29:40.451Z,1012.35
2016-12-21T01:30:21.065Z,1012.37
2016-12-21T01:31:01.679Z,1012.36
2016-12-21T01:31:42.333Z,1012.37
2016-12-21T01:32:22.978Z,1012.41
2016-12-21T01:33:03.562Z,1012.41
2016-12-21T01:33:44.210Z,1012.39
2016-12-21T01:34:24.820Z,1012.4
2016-12-21T01:35:05.423Z,1012.41
2016-12-21T01:35:46.021Z,1012.44
2016-12-21T01:36:26.598Z,1012.46
2016-12-21T01:37:07.184Z,1012.42
2016-12-21T01:37:47.776Z,1012.48
2016-12-21T01:38:28.385Z,1012.45
2016-12-21T01:39:08.993Z,1012.53
2016-12-21T01:39:49.577Z,1012.52
2016-12-21T01:40:30.190Z,1012.52
2016-12-21T01:41:10.789Z,1012.51
2016-12-21T01:41:51.467Z,1012.51
2016-12-21T01:42:32.094Z,1012.54
2016-12-21T01:43:12.693Z,1012.49
2016-12-21T01:43:53.360Z,1012.53
2016-12-21T01:44:33.957Z,1012.51
2016-12-21T01:45:14.549Z,1012.56
2016-12-21T01:45:55.146Z,1012.57
2016-12-21T01:46:35.749Z,1012.61
2016-12-21T01:47:16.322Z,1012.6
2016-12-21T01:47:56.938Z,1012.6
2016-12-21T01:48:37.629Z,1012.66
2016-12-21T01:49:18.212Z,1012.62
2016-12-21T01:49:58.800Z,1012.65
2016-12-21T01:50:39.386Z,1012.66
2016-12-21T01:51:19.972Z,1012.65
2016-12-21T01:52:00.592Z,1012.68
2016-12-21T01:52:41.180Z,1012.7
2016-12-21T01:53:21.790Z,1012.67
2016-12-21T01:54:02.400Z,1012.65
2016-12-21T01:54:42.988Z,1012.64
2016-12-21T01:55:23.573Z,1012.68
2016-12-21T01:56:04.186Z,1012.69
2016-12-21T01:56:44.789Z,1012.72
2016-12-21T01:57:25.402Z,1012.69
2016-12-21T01:58:05.995Z,1012.67
2016-12-21T01:58:46.585Z,1012.71
2016-12-21T01:59:27.194Z,1012.75
2016-12-21T02:00:07.821Z,1012.76
2016-12-21T02:00:48.416Z,1012.72
2016-12-21T02:01:29.010Z,1012.74
2016-12-21T02:02:09.707Z,1012.76
2016-12-21T02:02:50.339Z,1012.77
2016-12-21T02:03:30.920Z,1012.74
2016-12-21T02:04:11.529Z,1012.76
2016-12-21T02:04:52.129Z,1012.72
2016-12-21T02:05:32.751Z,1012.79
2016-12-21T02:06:13.314Z,1012.75
2016-12-21T02:06:53.941Z,1012.74
2016-12-21T02:07:34.521Z,1012.75
2016-12-21T02:08:15.120Z,1012.78
2016-12-21T02:08:55.707Z,1012.81
2016-12-21T02:09:36.343Z,1012.78
2016-12-21T02:10:16.960Z,1012.79
2016-12-21T02:10:57.594Z,1012.78
2016-12-21T02:11:38.232Z,1012.78
2016-12-21T02:12:18.851Z,1012.78
2016-12-21T02:12:59.516Z,1012.77
2016-12-21T02:13:40.144Z,1012.71
2016-12-21T02:14:20.766Z,1012.78
2016-12-21T02:15:01.352Z,1012.76
2016-12-21T02:15:41.965Z,1012.73
2016-12-21T02:16:22.550Z,1012.77
2016-12-21T02:17:03.187Z,1012.78
2016-12-21T02:17:43.805Z,1012.77
2016-12-21T02:18:24.420Z,1012.8
2016-12-21T02:19:05.008Z,1012.83
2016-12-21T02:19:45.618Z,1012.82
2016-12-21T02:20:26.265Z,1012.83
2016-12-21T02:21:06.896Z,1012.85
2016-12-21T02:21:47.478Z,1012.82
2016-12-21T02:22:28.071Z,1012.78
2016-12-21T02:23:08.645Z,1012.8
2016-12-21T02:23:49.237Z,1012.75
2016-12-21T02:24:29.846Z,1012.76
2016-12-21T02:25:10.430Z,1012.81
2016-12-21T02:25:51.047Z,1012.86
2016-12-21T02:26:31.651Z,1012.85
2016-12-21T02:27:12.285Z,1012.77
2016-12-21T02:27:52.893Z,1012.82
2016-12-21T02:28:33.491Z,1012.82
2016-12-21T02:29:14.085Z,1012.85
2016-12-21T02:29:54.712Z,1012.87
2016-12-21T02:30:35.307Z,1012.85
2016-12-21T02:31:15.921Z,1012.86
2016-12-21T02:31:56.506Z,1012.87
2016-12-21T02:32:37.116Z,1012.81
2016-12-21T02:33:17.702Z,1012.85
2016-12-21T02:33:58.319Z,1012.8
2016-12-21T02:34:38.916Z,1012.84
2016-12-21T02:35:19.572Z,1012.85
2016-12-21T02:36:00.173Z,1012.85
2016-12-21T02:36:40.826Z,1012.9
2016-12-21T02:37:21.413Z,1012.93
2016-12-21T02:38:02.040Z,1012.92
2016-12-21T02:38:42.662Z,1012.9
2016-12-21T02:39:23.237Z,1012.92
2016-12-21T02:40:03.825Z,1012.94
2016-12-21T02:40:44.442Z,1012.87
2016-12-21T02:41:25.033Z,1012.91
2016-12-21T02:42:05.718Z,1012.87
2016-12-21T02:42:46.318Z,1012.88
2016-12-21T02:43:26.965Z,1012.9
2016-12-21T02:44:07.530Z,1012.91
2016-12-21T02:44:48.122Z,1012.89
2016-12-21T02:45:28.772Z,1012.86
2016-12-21T02:46:09.356Z,1012.88
2016-12-21T02:46:49.987Z,1012.82
2016-12-21T02:47:30.612Z,1012.86
2016-12-21T02:48:11.208Z,1012.89
2016-12-21T02:48:51.810Z,1012.88
2016-12-21T02:49:32.445Z,1012.91
2016-12-21T02:50:13.091Z,1012.9
2016-12-21T02:50:53.719Z,1012.86
2016-12-21T02:51:34.341Z,1012.84
2016-12-21T02:52:14.921Z,1012.84
2016-12-21T02:52:55.550Z,1012.84
2016-12-21T02:53:36.136Z,1012.85
2016-12-21T02:54:16.767Z,1012.86
2016-12-21T02:54:57.333Z,1012.84
2016-12-21T02:55:37.984Z,1012.81
2016-12-21T02:56:18.586Z,1012.83
2016-12-21T02:56:59.219Z,1012.79
2016-12-21T02:57:39.824Z,1012.79
2016-12-21T02:58:20.408Z,1012.76
2016-12-21T02:59:00.997Z,1012.76
2016-12-21T02:59:41.618Z,1012.8
2016-12-21T03:00:22.277Z,1012.77
2016-12-21T03:01:02.854Z,1012.81
2016-12-21T03:01:43.450Z,1012.77
2016-12-21T03:02:24.029Z,1012.73
2016-12-21T03:03:04.608Z,1012.75
2016-12-21T03:03:45.241Z,1012.74
2016-12-21T03:04:25.826Z,1012.73
2016-12-21T03:05:06.408Z,1012.72
2016-12-21T03:05:46.997Z,1012.68
2016-12-21T03:06:27.610Z,1012.69
2016-12-21T03:07:08.228Z,1012.69
2016-12-21T03:07:48.811Z,1012.73
2016-12-21T03:08:29.392Z,1012.73
2016-12-21T03:09:09.974Z,1012.74
2016-12-21T03:09:50.579Z,1012.71
2016-12-21T03:10:31.223Z,1012.72
2016-12-21T03:11:11.779Z,1012.7
2016-12-21T03:11:52.426Z,1012.71
2016-12-21T03:12:33.058Z,1012.72
2016-12-21T03:13:13.710Z,1012.7
2016-12-21T03:13:54.313Z,1012.75
2016-12-21T03:14:34.943Z,1012.71
2016-12-21T03:15:15.577Z,1012.69
2016-12-21T03:15:56.166Z,1012.7
2016-12-21T03:16:36.871Z,1012.7
2016-12-21T03:17:17.468Z,1012.71
2016-12-21T03:17:58.083Z,1012.68
2016-12-21T03:18:38.679Z,1012.66
2016-12-21T03:19:19.288Z,1012.61
2016-12-21T03:19:59.894Z,1012.66
2016-12-21T03:20:40.488Z,1012.65
2016-12-21T03:21:21.105Z,1012.66
2016-12-21T03:22:01.704Z,1012.64
2016-12-21T03:22:42.288Z,1012.65
2016-12-21T03:23:22.885Z,1012.61
2016-12-21T03:24:03.475Z,1012.61
2016-12-21T03:24:44.051Z,1012.64
2016-12-21T03:25:24.630Z,1012.64
2016-12-21T03:26:05.313Z,1012.6
2016-12-21T03:26:45.916Z,1012.66
2016-12-21T03:27:26.526Z,1012.64
2016-12-21T03:28:07.103Z,1012.69
2016-12-21T03:28:47.720Z,1012.62
2016-12-21T03:29:28.306Z,1012.62
2016-12-21T03:30:08.879Z,1012.66
2016-12-21T03:30:49.459Z,1012.63
2016-12-21T03:31:30.062Z,1012.61
2016-12-21T03:32:10.661Z,1012.66
2016-12-21T03:32:51.306Z,1012.51
2016-12-21T03:33:31.941Z,1012.63
2016-12-21T03:34:12.521Z,1012.58
2016-12-21T03:34:53.111Z,1012.63
2016-12-21T03:35:33.710Z,1012.63
2016-12-21T03:36:14.283Z,1012.64
2016-12-21T03:36:54.873Z,1012.67
2016-12-21T03:37:35.454Z,1012.6
2016-12-21T03:38:16.036Z,1012.56
2016-12-21T03:38:56.645Z,1012.6
2016-12-21T03:39:37.237Z,1012.61
2016-12-21T03:40:17.841Z,1012.62
2016-12-21T03:40:58.429Z,1012.57
2016-12-21T03:41:39.031Z,1012.6
2016-12-21T03:42:19.623Z,1012.65
2016-12-21T03:43:00.244Z,1012.61
2016-12-21T03:43:40.845Z,1012.65
2016-12-21T03:44:21.453Z,1012.64
2016-12-21T03:45:02.078Z,1012.59
2016-12-21T03:45:42.706Z,1012.64
2016-12-21T03:46:23.287Z,1012.57
2016-12-21T03:47:03.863Z,1012.59
2016-12-21T03:47:44.461Z,1012.51
2016-12-21T03:48:25.084Z,1012.58
2016-12-21T03:49:05.672Z,1012.56
2016-12-21T03:49:46.258Z,1012.6
2016-12-21T03:50:26.858Z,1012.56
2016-12-21T03:51:07.474Z,1012.63
2016-12-21T03:51:48.067Z,1012.62
2016-12-21T03:52:28.683Z,1012.63
2016-12-21T03:53:09.276Z,1012.62
2016-12-21T03:53:49.881Z,1012.58
2016-12-21T03:54:30.471Z,1012.57
2016-12-21T03:55:11.057Z,1012.54
2016-12-21T03:55:51.666Z,1012.52
2016-12-21T03:56:32.257Z,1012.58
2016-12-21T03:57:12.903Z,1012.58
2016-12-21T03:57:53.498Z,1012.58
2016-12-21T03:58:34.174Z,1012.66
2016-12-21T03:59:14.737Z,1012.61
2016-12-21T03:59:55.396Z,1012.64
2016-12-21T04:00:35.973Z,1012.68
2016-12-21T04:01:16.613Z,1012.73
2016-12-21T04:01:57.228Z,1012.69
2016-12-21T04:02:37.818Z,1012.65
2016-12-21T04:03:18.456Z,1012.7
2016-12-21T04:03:59.111Z,1012.67
2016-12-21T04:04:39.689Z,1012.61
2016-12-21T04:05:20.304Z,1012.63
2016-12-21T04:06:00.912Z,1012.65
2016-12-21T04:06:41.508Z,1012.68
2016-12-21T04:07:22.124Z,1012.7
2016-12-21T04:08:02.720Z,1012.77
2016-12-21T04:08:43.341Z,1012.73
2016-12-21T04:09:23.967Z,1012.69
2016-12-21T04:10:04.554Z,1012.7
2016-12-21T04:10:45.130Z,1012.71
2016-12-21T04:11:25.731Z,1012.7
2016-12-21T04:12:06.312Z,1012.74
2016-12-21T04:12:46.908Z,1012.7
2016-12-21T04:13:27.510Z,1012.72
2016-12-21T04:14:08.137Z,1012.71
2016-12-21T04:14:48.781Z,1012.69
2016-12-21T04:15:29.385Z,1012.69
2016-12-21T04:16:09.994Z,1012.7
2016-12-21T04:16:50.611Z,1012.72
2016-12-21T04:17:31.227Z,1012.74
2016-12-21T04:18:11.815Z,1012.77
2016-12-21T04:18:52.424Z,1012.75
2016-12-21T04:19:33.059Z,1012.76
2016-12-21T04:20:13.637Z,1012.76
2016-12-21T04:20:54.258Z,1012.79
2016-12-21T04:21:34.876Z,1012.79
2016-12-21T04:22:15.466Z,1012.79
2016-12-21T04:22:56.086Z,1012.82
2016-12-21T04:23:36.687Z,1012.77
2016-12-21T04:24:17.263Z,1012.72
2016-12-21T04:24:57.847Z,1012.72
2016-12-21T04:25:38.494Z,1012.72
2016-12-21T04:26:19.092Z,1012.74
2016-12-21T04:26:59.738Z,1012.68
2016-12-21T04:27:40.320Z,1012.78
2016-12-21T04:28:20.899Z,1012.76
2016-12-21T04:29:01.521Z,1012.76
2016-12-21T04:29:42.103Z,1012.76
2016-12-21T04:30:22.716Z,1012.75
2016-12-21T04:31:03.264Z,1012.73
2016-12-21T04:31:43.855Z,1012.79
2016-12-21T04:32:24.458Z,1012.77
2016-12-21T04:33:05.064Z,1012.78
2016-12-21T04:33:45.668Z,1012.84
2016-12-21T04:34:26.258Z,1012.84
2016-12-21T04:35:06.868Z,1012.86
2016-12-21T04:35:47.477Z,1012.88
2016-12-21T04:36:28.074Z,1012.92
2016-12-21T04:37:08.665Z,1012.83
2016-12-21T04:37:49.283Z,1012.85
2016-12-21T04:38:29.897Z,1012.83
2016-12-21T04:39:10.487Z,1012.86
2016-12-21T04:39:51.089Z,1012.94
2016-12-21T04:40:31.724Z,1012.92
2016-12-21T04:41:12.380Z,1012.91
2016-12-21T04:41:53.131Z,1012.96
2016-12-21T04:42:33.693Z,1012.95
2016-12-21T04:43:14.353Z,1012.96
2016-12-21T04:43:54.946Z,1012.93
2016-12-21T04:44:35.550Z,1013
2016-12-21T04:45:16.152Z,1012.98
2016-12-21T04:45:56.759Z,1012.95
2016-12-21T04:46:37.353Z,1012.99
2016-12-21T04:47:17.990Z,1012.96
2016-12-21T04:47:58.588Z,1012.96
2016-12-21T04:48:39.212Z,1012.98
2016-12-21T04:49:19.798Z,1012.95
2016-12-21T04:50:00.381Z,1012.98
2016-12-21T04:50:40.964Z,1012.98
2016-12-21T04:51:21.570Z,1013
2016-12-21T04:52:02.183Z,1013.03
2016-12-21T04:52:42.765Z,1012.98
2016-12-21T04:53:23.361Z,1013.04
2016-12-21T04:54:03.965Z,1012.97
2016-12-21T04:54:44.529Z,1013
2016-12-21T04:55:25.116Z,1013.05
2016-12-21T04:56:05.761Z,1013.09
2016-12-21T04:56:46.369Z,1013.01
2016-12-21T04:57:26.989Z,1012.98
2016-12-21T04:58:07.574Z,1013.08
2016-12-21T04:58:48.221Z,1013.08
2016-12-21T04:59:28.849Z,1013.11
2016-12-21T05:00:09.447Z,1013.15
2016-12-21T05:00:50.041Z,1013.14
2016-12-21T05:01:30.653Z,1013.16
2016-12-21T05:02:11.253Z,1013.12
2016-12-21T05:02:51.857Z,1013.17
2016-12-21T05:03:32.447Z,1013.19
2016-12-21T05:04:13.037Z,1013.17
2016-12-21T05:04:53.646Z,1013.18
2016-12-21T05:05:34.242Z,1013.2
2016-12-21T05:06:14.854Z,1013.25
2016-12-21T05:06:55.469Z,1013.27
2016-12-21T05:07:36.071Z,1013.27
2016-12-21T05:08:16.652Z,1013.31
2016-12-21T05:08:57.260Z,1013.32
2016-12-21T05:09:37.853Z,1013.3
2016-12-21T05:10:18.463Z,1013.35
2016-12-21T05:10:59.083Z,1013.35
2016-12-21T05:11:39.676Z,1013.38
2016-12-21T05:12:20.265Z,1013.36
2016-12-21T05:13:00.876Z,1013.37
2016-12-21T05:13:41.465Z,1013.4
2016-12-21T05:14:22.076Z,1013.41
2016-12-21T05:15:02.675Z,1013.37
2016-12-21T05:15:43.246Z,1013.44
2016-12-21T05:16:23.830Z,1013.4
2016-12-21T05:17:04.452Z,1013.41
2016-12-21T05:17:45.078Z,1013.4
2016-12-21T05:18:25.674Z,1013.41
2016-12-21T05:19:06.258Z,1013.4
2016-12-21T05:19:46.837Z,1013.42
2016-12-21T05:20:27.430Z,1013.47
2016-12-21T05:21:08.032Z,1013.46
2016-12-21T05:21:48.650Z,1013.46
2016-12-21T05:22:29.240Z,1013.44
2016-12-21T05:23:09.803Z,1013.44
2016-12-21T05:23:50.405Z,1013.49
2016-12-21T05:24:30.990Z,1013.58
2016-12-21T05:25:11.595Z,1013.52
2016-12-21T05:25:52.197Z,1013.48
2016-12-21T05:26:32.806Z,1013.49
2016-12-21T05:27:13.400Z,1013.52
2016-12-21T05:27:54.008Z,1013.54
2016-12-21T05:28:34.602Z,1013.5
2016-12-21T05:29:15.185Z,1013.41
2016-12-21T05:29:55.779Z,1013.55
2016-12-21T05:30:36.365Z,1013.58
2016-12-21T05:31:16.965Z,1013.59
2016-12-21T05:31:57.544Z,1013.64
2016-12-21T05:32:38.166Z,1013.64
2016-12-21T05:33:18.738Z,1013.67
2016-12-21T05:33:59.352Z,1013.68
2016-12-21T05:34:39.948Z,1013.65
2016-12-21T05:35:20.535Z,1013.62
2016-12-21T05:36:01.128Z,1013.67
2016-12-21T05:36:41.727Z,1013.75
2016-12-21T05:37:22.304Z,1013.74
2016-12-21T05:38:02.897Z,1013.73
2016-12-21T05:38:43.485Z,1013.71
2016-12-21T05:39:24.128Z,1013.75
2016-12-21T05:40:04.752Z,1013.76
2016-12-21T05:40:45.319Z,1013.76
2016-12-21T05:41:25.991Z,1013.79
2016-12-21T05:42:06.598Z,1013.78
2016-12-21T05:42:47.176Z,1013.76
2016-12-21T05:43:27.761Z,1013.82
2016-12-21T05:44:08.363Z,1013.74
2016-12-21T05:44:48.988Z,1013.78
2016-12-21T05:45:29.622Z,1013.79
2016-12-21T05:46:10.187Z,1013.86
2016-12-21T05:46:50.774Z,1013.87
2016-12-21T05:47:31.354Z,1013.81
2016-12-21T05:48:11.954Z,1013.86
2016-12-21T05:48:52.567Z,1013.79
2016-12-21T05:49:33.159Z,1013.77
2016-12-21T05:50:13.730Z,1013.86
2016-12-21T05:50:54.378Z,1013.84
2016-12-21T05:51:34.957Z,1013.86
2016-12-21T05:52:15.538Z,1013.85
2016-12-21T05:52:56.119Z,1013.82
2016-12-21T05:53:36.699Z,1013.83
2016-12-21T05:54:17.291Z,1013.87
2016-12-21T05:54:57.871Z,1013.9
2016-12-21T05:55:38.463Z,1013.95
2016-12-21T05:56:19.044Z,1013.97
2016-12-21T05:56:59.635Z,1013.93
2016-12-21T05:57:40.223Z,1014
2016-12-21T05:58:20.841Z,1013.9
2016-12-21T05:59:01.446Z,1013.95
2016-12-21T05:59:42.057Z,1014.01
2016-12-21T06:00:22.642Z,1014.04
2016-12-21T06:01:03.225Z,1014.01
2016-12-21T06:01:43.817Z,1013.99
2016-12-21T06:02:24.477Z,1013.99
2016-12-21T06:03:05.064Z,1014.04
2016-12-21T06:03:45.683Z,1014.04
2016-12-21T06:04:26.266Z,1014.06
2016-12-21T06:05:06.883Z,1014.05
2016-12-21T06:05:47.500Z,1014.03
2016-12-21T06:06:28.079Z,1014.04
2016-12-21T06:07:08.686Z,1014.05
2016-12-21T06:07:49.276Z,1014.04
2016-12-21T06:08:29.856Z,1014.01
2016-12-21T06:09:10.447Z,1013.99
2016-12-21T06:09:51.045Z,1014.01
2016-12-21T06:10:31.642Z,1014.01
2016-12-21T06:11:12.282Z,1013.99
2016-12-21T06:11:52.882Z,1013.98
2016-12-21T06:12:33.472Z,1014.01
2016-12-21T06:13:14.077Z,1014.01
2016-12-21T06:13:54.656Z,1014
2016-12-21T06:14:35.241Z,1013.99
2016-12-21T06:15:15.856Z,1013.95
2016-12-21T06:15:56.460Z,1014.02
2016-12-21T06:16:37.064Z,1014
2016-12-21T06:17:17.655Z,1013.97
2016-12-21T06:17:58.256Z,1013.99
2016-12-21T06:18:38.850Z,1013.97
2016-12-21T06:19:19.441Z,1013.98
2016-12-21T06:20:00.021Z,1014.01
2016-12-21T06:20:40.613Z,1014
2016-12-21T06:21:21.200Z,1014.01
2016-12-21T06:22:01.779Z,1014.06
2016-12-21T06:22:42.372Z,1014.03
2016-12-21T06:23:22.984Z,1014.02
2016-12-21T06:24:03.584Z,1014.06
2016-12-21T06:24:44.181Z,1014.05
2016-12-21T06:25:24.790Z,1014.08
2016-12-21T06:26:05.373Z,1014.09
2016-12-21T06:26:45.981Z,1014.07
2016-12-21T06:27:26.633Z,1014.11
2016-12-21T06:28:07.270Z,1014.1
2016-12-21T06:28:47.849Z,1014.12
2016-12-21T06:29:28.503Z,1014.07
2016-12-21T06:30:09.112Z,1014.07
2016-12-21T06:30:49.721Z,1014.1
2016-12-21T06:31:30.327Z,1014.08
2016-12-21T06:32:10.906Z,1014.1
2016-12-21T06:32:51.512Z,1014.11
2016-12-21T06:33:32.149Z,1014.14
2016-12-21T06:34:12.819Z,1014.11
2016-12-21T06:34:53.417Z,1014.1
2016-12-21T06:35:34.043Z,1014.06
2016-12-21T06:36:14.659Z,1014.08
2016-12-21T06:36:55.288Z,1014.12
2016-12-21T06:37:35.895Z,1014.1
2016-12-21T06:38:16.509Z,1014.13
2016-12-21T06:38:57.090Z,1014.16
2016-12-21T06:39:37.710Z,1014.14
2016-12-21T06:40:18.293Z,1014.17
2016-12-21T06:40:58.877Z,1014.19
2016-12-21T06:41:39.463Z,1014.09
2016-12-21T06:42:20.062Z,1014.18
2016-12-21T06:43:00.701Z,1014.23
2016-12-21T06:43:41.284Z,1014.13
2016-12-21T06:44:21.881Z,1014.21
2016-12-21T06:45:02.476Z,1014.2
2016-12-21T06:45:43.058Z,1014.25
2016-12-21T06:46:23.668Z,1014.23
2016-12-21T06:47:04.243Z,1014.23
2016-12-21T06:47:44.829Z,1014.28
2016-12-21T06:48:25.409Z,1014.32
2016-12-21T06:49:06.000Z,1014.34
2016-12-21T06:49:46.589Z,1014.3
2016-12-21T06:50:27.232Z,1014.36
2016-12-21T06:51:07.841Z,1014.38
2016-12-21T06:51:48.431Z,1014.37
2016-12-21T06:52:29.031Z,1014.42
2016-12-21T06:53:09.586Z,1014.39
2016-12-21T06:53:50.194Z,1014.38
2016-12-21T06:54:30.832Z,1014.43
2016-12-21T06:55:11.438Z,1014.42
2016-12-21T06:55:52.005Z,1014.38
2016-12-21T06:56:32.662Z,1014.35
2016-12-21T06:57:13.250Z,1014.38
2016-12-21T06:57:53.832Z,1014.39
2016-12-21T06:58:34.421Z,1014.39
2016-12-21T06:59:15.052Z,1014.34
2016-12-21T06:59:55.640Z,1014.32
2016-12-21T07:00:36.256Z,1014.3
2016-12-21T07:01:16.822Z,1014.35
2016-12-21T07:01:57.529Z,1014.33
2016-12-21T07:02:38.133Z,1014.36
2016-12-21T07:03:18.734Z,1014.39
2016-12-21T07:03:59.327Z,1014.41
2016-12-21T07:04:39.894Z,1014.45
2016-12-21T07:05:20.546Z,1014.45
2016-12-21T07:06:01.125Z,1014.45
2016-12-21T07:06:41.732Z,1014.46
2016-12-21T07:07:22.335Z,1014.51
2016-12-21T07:08:02.947Z,1014.48
2016-12-21T07:08:43.558Z,1014.48
2016-12-21T07:09:24.154Z,1014.49
2016-12-21T07:10:04.757Z,1014.5
2016-12-21T07:10:45.449Z,1014.5
2016-12-21T07:11:26.067Z,1014.51
2016-12-21T07:12:06.652Z,1014.56
2016-12-21T07:12:47.248Z,1014.59
2016-12-21T07:13:27.860Z,1014.56
2016-12-21T07:14:08.451Z,1014.59
2016-12-21T07:14:49.077Z,1014.56
2016-12-21T07:15:29.659Z,1014.58
2016-12-21T07:16:10.238Z,1014.6
2016-12-21T07:16:50.810Z,1014.58
2016-12-21T07:17:31.405Z,1014.56
2016-12-21T07:18:12.013Z,1014.63
2016-12-21T07:18:52.619Z,1014.61
2016-12-21T07:19:33.224Z,1014.6
2016-12-21T07:20:13.830Z,1014.62
2016-12-21T07:20:54.462Z,1014.56
2016-12-21T07:21:35.122Z,1014.54
2016-12-21T07:22:15.745Z,1014.48
2016-12-21T07:22:56.336Z,1014.48
2016-12-21T07:23:36.925Z,1014.66
2016-12-21T07:24:17.562Z,1014.59
2016-12-21T07:24:58.153Z,1014.63
2016-12-21T07:25:38.763Z,1014.62
2016-12-21T07:26:19.350Z,1014.65
2016-12-21T07:26:59.938Z,1014.64
2016-12-21T07:27:40.537Z,1014.65
2016-12-21T07:28:21.141Z,1014.61
2016-12-21T07:29:01.729Z,1014.59
2016-12-21T07:29:42.349Z,1014.66
2016-12-21T07:30:22.958Z,1014.61
2016-12-21T07:31:03.550Z,1014.63
2016-12-21T07:31:44.169Z,1014.62
2016-12-21T07:32:24.751Z,1014.65
2016-12-21T07:33:05.365Z,1014.69
2016-12-21T07:33:45.952Z,1014.66
2016-12-21T07:34:26.591Z,1014.66
2016-12-21T07:35:07.180Z,1014.68
2016-12-21T07:35:47.782Z,1014.71
2016-12-21T07:36:28.381Z,1014.71
2016-12-21T07:37:08.981Z,1014.7
2016-12-21T07:37:49.584Z,1014.69
2016-12-21T07:38:30.191Z,1014.69
2016-12-21T07:39:10.773Z,1014.69
2016-12-21T07:39:51.372Z,1014.73
2016-12-21T07:40:31.985Z,1014.68
2016-12-21T07:41:12.617Z,1014.69
2016-12-21T07:41:53.215Z,1014.75
2016-12-21T07:42:33.898Z,1014.7
2016-12-21T07:43:14.445Z,1014.72
2016-12-21T07:43:55.053Z,1014.75
2016-12-21T07:44:35.646Z,1014.76
2016-12-21T07:45:16.240Z,1014.77
2016-12-21T07:45:56.852Z,1014.79
2016-12-21T07:46:37.488Z,1014.81
2016-12-21T07:47:18.062Z,1014.8
2016-12-21T07:47:58.695Z,1014.82
2016-12-21T07:48:39.297Z,1014.79
2016-12-21T07:49:19.890Z,1014.84
2016-12-21T07:50:00.477Z,1014.86
2016-12-21T07:50:41.083Z,1014.91
2016-12-21T07:51:21.659Z,1014.91
2016-12-21T07:52:02.256Z,1014.91
2016-12-21T07:52:42.877Z,1014.99
2016-12-21T07:53:23.472Z,1014.96
2016-12-21T07:54:04.144Z,1015
2016-12-21T07:54:44.732Z,1015.02
2016-12-21T07:55:25.325Z,1015.04
2016-12-21T07:56:05.960Z,1015.06
2016-12-21T07:56:46.561Z,1015.09
2016-12-21T07:57:27.173Z,1015.09
2016-12-21T07:58:07.795Z,1015.11
2016-12-21T07:58:48.385Z,1015.14
2016-12-21T07:59:28.987Z,1015.16
2016-12-21T08:00:09.603Z,1015.15
2016-12-21T08:00:50.208Z,1015.24
2016-12-21T08:01:30.807Z,1015.23
2016-12-21T08:02:11.399Z,1015.23
2016-12-21T08:02:51.993Z,1015.19
2016-12-21T08:03:32.579Z,1015.19
2016-12-21T08:04:13.210Z,1015.17
2016-12-21T08:04:53.831Z,1015.28
2016-12-21T08:05:34.412Z,1015.31
2016-12-21T08:06:15.016Z,1015.36
2016-12-21T08:06:55.605Z,1015.36
2016-12-21T08:07:36.207Z,1015.38
2016-12-21T08:08:16.796Z,1015.4
2016-12-21T08:08:57.389Z,1015.43
2016-12-21T08:09:37.979Z,1015.46
2016-12-21T08:10:18.572Z,1015.41
2016-12-21T08:10:59.178Z,1015.39
2016-12-21T08:11:39.776Z,1015.42
2016-12-21T08:12:20.393Z,1015.48
2016-12-21T08:13:01.015Z,1015.56